Time;durP1;ratioP1;P1;durP2;ratioP2;P2;SDS_P1;SDS_P2;PMS_P1;PMS_P2;Temp;Humidity;BMP_temperature;BMP_pressure;BME280_temperature;BME280_humidity;BME280_pressure;Samples;Min_cycle;Max_cycle;Signal;HPM_P1;HPM_P2
2023/03/13 00:01:00;;;;;;;23.60;8.05;;;11.40;92.00;;;;;;5017901;28;20049;-74
2023/03/13 00:03:27;;;;;;;24.52;8.50;;;11.40;92.10;;;;;;5019190;28;20017;-77
2023/03/13 00:05:56;;;;;;;24.05;8.50;;;11.50;92.20;;;;;;5020954;28;20090;-79
2023/03/13 00:08:23;;;;;;;23.05;8.10;;;11.50;92.20;;;;;;5021050;28;20017;-75
2023/03/13 00:10:49;;;;;;;21.95;8.23;;;11.50;92.10;;;;;;5009052;28;20022;-75
2023/03/13 00:13:15;;;;;;;18.88;7.63;;;11.50;92.30;;;;;;5019132;28;20026;-79
2023/03/13 00:15:40;;;;;;;19.63;8.40;;;11.50;92.30;;;;;;5013580;28;20053;-75
2023/03/13 00:18:06;;;;;;;18.23;7.35;;;11.50;92.30;;;;;;5024473;28;20061;-82
2023/03/13 00:20:32;;;;;;;19.67;7.38;;;11.50;92.50;;;;;;4995432;28;20431;-79
2023/03/13 00:22:57;;;;;;;18.05;7.72;;;11.60;92.50;;;;;;5016628;28;20532;-81
2023/03/13 00:25:23;;;;;;;17.15;7.47;;;11.60;92.50;;;;;;5017819;28;20099;-77
2023/03/13 00:27:48;;;;;;;16.25;6.93;;;11.60;92.50;;;;;;5019746;28;20552;-75
2023/03/13 00:30:14;;;;;;;15.23;7.15;;;11.60;92.50;;;;;;5020700;28;20393;-75
2023/03/13 00:32:45;;;;;;;16.67;6.90;;;11.70;92.50;;;;;;5014403;28;20065;-81
2023/03/13 00:35:11;;;;;;;14.10;6.57;;;11.70;92.50;;;;;;5020049;28;20037;-77
2023/03/13 00:37:37;;;;;;;22.60;6.95;;;11.70;92.50;;;;;;5019599;28;20048;-75
2023/03/13 00:40:04;;;;;;;16.40;6.90;;;11.80;92.50;;;;;;5019021;28;20074;-82
2023/03/13 00:42:30;;;;;;;18.90;7.07;;;11.70;92.50;;;;;;5017890;28;20060;-75
2023/03/13 00:44:56;;;;;;;16.70;6.53;;;11.70;92.50;;;;;;5026583;28;20033;-78
2023/03/13 00:47:21;;;;;;;16.00;6.70;;;11.80;92.50;;;;;;5022521;28;20041;-81
2023/03/13 00:49:47;;;;;;;18.05;6.35;;;11.80;92.50;;;;;;5019304;28;20037;-77
2023/03/13 00:52:13;;;;;;;18.35;7.68;;;11.90;92.50;;;;;;5025297;28;20029;-75
2023/03/13 00:54:38;;;;;;;18.83;7.05;;;11.80;92.40;;;;;;5023619;28;20029;-76
2023/03/13 00:57:04;;;;;;;17.83;6.72;;;11.80;92.50;;;;;;5004058;28;20026;-80
2023/03/13 00:59:30;;;;;;;15.07;6.82;;;11.90;92.50;;;;;;5021367;28;20040;-83
2023/03/13 01:01:55;;;;;;;10.40;5.25;;;11.90;92.50;;;;;;5021592;28;20037;-79
2023/03/13 01:04:21;;;;;;;16.08;6.53;;;12.00;92.50;;;;;;5023993;28;20065;-74
2023/03/13 01:06:47;;;;;;;16.13;6.85;;;12.00;92.30;;;;;;5024038;28;20060;-80
2023/03/13 01:09:14;;;;;;;16.92;6.53;;;12.00;92.30;;;;;;5023004;28;20490;-78
2023/03/13 01:11:41;;;;;;;18.30;6.32;;;12.00;92.30;;;;;;5018435;28;20044;-80
2023/03/13 01:14:17;;;;;;;10.48;5.45;;;12.10;92.30;;;;;;5024495;28;20020;-76
2023/03/13 01:16:43;;;;;;;13.93;6.30;;;12.10;92.30;;;;;;5020475;28;20672;-78
2023/03/13 01:19:11;;;;;;;16.20;6.00;;;12.10;92.40;;;;;;5003219;28;20172;-76
2023/03/13 01:21:37;;;;;;;12.73;6.07;;;12.10;92.30;;;;;;5005511;28;20034;-79
2023/03/13 01:24:03;;;;;;;14.85;5.50;;;12.10;92.30;;;;;;5024285;28;20383;-78
2023/03/13 01:26:29;;;;;;;11.93;5.47;;;12.10;92.30;;;;;;5022278;28;20033;-81
2023/03/13 01:28:55;;;;;;;13.70;5.78;;;12.20;92.30;;;;;;5027616;28;20371;-83
2023/03/13 01:31:23;;;;;;;11.63;5.32;;;12.20;92.30;;;;;;5020316;28;20049;-77
2023/03/13 01:33:53;;;;;;;10.98;5.32;;;12.20;92.20;;;;;;5019528;28;20490;-76
2023/03/13 01:36:18;;;;;;;13.52;5.25;;;12.20;92.30;;;;;;5021626;28;20036;-81
2023/03/13 01:38:48;;;;;;;10.07;5.00;;;12.20;92.30;;;;;;5021044;28;20026;-82
2023/03/13 01:41:14;;;;;;;9.27;5.18;;;12.30;92.30;;;;;;5022565;28;20044;-77
2023/03/13 01:43:40;;;;;;;10.75;5.43;;;12.30;92.40;;;;;;5018982;28;20066;-82
2023/03/13 01:46:20;;;;;;;11.35;4.85;;;12.30;92.40;;;;;;4998598;28;20081;-80
2023/03/13 01:48:46;;;;;;;12.07;5.88;;;12.40;92.40;;;;;;4996321;28;20026;-75
2023/03/13 01:51:41;;;;;;;10.98;4.82;;;12.40;92.30;;;;;;5008904;28;20045;-75
2023/03/13 01:54:12;;;;;;;12.13;6.03;;;12.40;92.40;;;;;;4997836;28;20045;-75
2023/03/13 01:56:46;;;;;;;13.23;5.45;;;12.40;92.30;;;;;;5003793;28;20038;-76
2023/03/13 01:59:16;;;;;;;10.00;5.90;;;12.50;92.40;;;;;;5004147;28;20116;-79
2023/03/13 02:01:44;;;;;;;12.00;5.55;;;12.50;92.50;;;;;;4999239;28;20414;-78
2023/03/13 02:04:11;;;;;;;10.18;5.20;;;12.60;92.50;;;;;;5003531;28;20025;-82
2023/03/13 02:06:41;;;;;;;10.00;6.18;;;12.50;92.50;;;;;;5002043;28;20042;-78
2023/03/13 02:09:13;;;;;;;11.43;6.25;;;12.50;92.60;;;;;;5004237;28;20336;-78
2023/03/13 02:11:45;;;;;;;9.90;5.80;;;12.60;92.60;;;;;;4997957;28;20042;-75
2023/03/13 02:14:12;;;;;;;11.52;6.43;;;12.60;92.50;;;;;;4999660;28;20037;-80
2023/03/13 02:16:39;;;;;;;13.10;6.57;;;12.60;92.50;;;;;;5002112;28;20029;-76
2023/03/13 02:19:17;;;;;;;10.45;5.90;;;12.60;92.60;;;;;;4999680;28;20474;-76
2023/03/13 02:21:53;;;;;;;9.88;6.45;;;12.60;92.60;;;;;;5001839;28;20046;-77
2023/03/13 02:24:30;;;;;;;10.63;6.90;;;12.60;92.60;;;;;;5005325;28;20041;-76
2023/03/13 02:26:55;;;;;;;10.77;6.70;;;12.60;92.70;;;;;;5000100;28;20482;-76
2023/03/13 02:29:23;;;;;;;10.95;6.93;;;12.60;92.70;;;;;;4996649;28;20018;-79
2023/03/13 02:31:49;;;;;;;10.98;7.07;;;12.60;92.70;;;;;;5016982;28;20607;-79
2023/03/13 02:34:20;;;;;;;12.18;6.57;;;12.60;92.70;;;;;;5003805;28;20029;-78
2023/03/13 02:36:46;;;;;;;12.77;7.50;;;12.70;92.50;;;;;;5002353;28;20030;-83
2023/03/13 02:39:14;;;;;;;10.30;6.43;;;12.80;92.40;;;;;;4998796;28;20022;-78
2023/03/13 02:41:42;;;;;;;12.10;6.90;;;12.80;92.30;;;;;;5003216;28;20050;-76
2023/03/13 02:44:08;;;;;;;11.60;6.75;;;12.80;92.20;;;;;;5003236;28;20026;-82
2023/03/13 02:47:03;;;;;;;13.45;6.72;;;12.80;92.00;;;;;;5014005;28;20501;-77
2023/03/13 02:49:29;;;;;;;9.88;6.30;;;12.80;91.90;;;;;;5000538;28;20136;-83
2023/03/13 02:52:15;;;;;;;12.23;7.05;;;12.80;91.70;;;;;;5019262;28;20033;-78
2023/03/13 02:54:43;;;;;;;10.52;6.18;;;12.90;91.70;;;;;;5023989;28;20032;-80
2023/03/13 02:57:09;;;;;;;12.32;6.85;;;12.90;91.50;;;;;;5005985;28;20375;-77
2023/03/13 02:59:35;;;;;;;9.55;5.75;;;13.00;91.30;;;;;;5018294;28;20033;-76
2023/03/13 03:02:00;;;;;;;8.10;5.22;;;13.00;91.10;;;;;;5019739;28;20085;-82
2023/03/13 03:04:26;;;;;;;10.38;6.47;;;13.00;91.10;;;;;;5020740;28;20071;-76
2023/03/13 03:06:52;;;;;;;9.50;6.20;;;13.00;91.00;;;;;;5019762;28;20493;-78
2023/03/13 03:09:21;;;;;;;12.23;6.82;;;13.00;90.90;;;;;;5023679;28;20084;-80
2023/03/13 03:11:47;;;;;;;9.68;6.18;;;13.00;90.80;;;;;;5021469;28;20080;-76
2023/03/13 03:14:12;;;;;;;11.77;6.57;;;13.10;90.70;;;;;;5005417;28;20021;-83
2023/03/13 03:16:39;;;;;;;10.68;6.13;;;13.10;90.70;;;;;;5023478;28;20025;-76
2023/03/13 03:19:05;;;;;;;13.00;6.43;;;13.00;90.60;;;;;;5004811;28;20539;-77
2023/03/13 03:21:32;;;;;;;11.02;5.85;;;13.10;90.60;;;;;;5005107;28;20058;-81
2023/03/13 03:23:58;;;;;;;10.32;6.00;;;13.10;90.50;;;;;;5024409;28;20063;-78
2023/03/13 03:26:23;;;;;;;10.18;5.85;;;13.10;90.50;;;;;;5011247;28;20087;-78
2023/03/13 03:28:49;;;;;;;11.13;5.38;;;13.10;90.30;;;;;;5022041;28;20100;-75
2023/03/13 03:31:15;;;;;;;10.05;5.45;;;13.10;90.30;;;;;;5016502;28;20045;-80
2023/03/13 03:33:42;;;;;;;10.43;5.30;;;13.10;90.20;;;;;;5002896;28;20108;-79
2023/03/13 03:36:11;;;;;;;11.02;5.60;;;13.10;90.10;;;;;;5022200;28;20113;-76
2023/03/13 03:38:38;;;;;;;9.38;4.90;;;13.20;89.80;;;;;;5023947;28;20022;-79
2023/03/13 03:41:05;;;;;;;10.63;5.63;;;13.20;89.60;;;;;;5016181;28;20060;-76
2023/03/13 03:43:31;;;;;;;10.60;5.07;;;13.20;89.30;;;;;;5019640;28;20041;-80
2023/03/13 03:45:56;;;;;;;10.38;5.28;;;13.30;89.10;;;;;;5023055;28;20052;-78
2023/03/13 03:48:22;;;;;;;8.48;5.20;;;13.30;89.10;;;;;;5013718;28;20369;-79
2023/03/13 03:50:48;;;;;;;9.25;4.93;;;13.20;89.20;;;;;;5003922;28;20437;-81
2023/03/13 03:53:14;;;;;;;10.05;5.10;;;13.20;89.10;;;;;;5020053;28;20460;-77
2023/03/13 03:55:39;;;;;;;10.35;5.20;;;13.30;89.00;;;;;;5021584;28;20033;-80
2023/03/13 03:58:05;;;;;;;11.30;4.65;;;13.30;89.00;;;;;;5027786;28;20148;-78
2023/03/13 04:00:31;;;;;;;11.43;5.28;;;13.30;89.00;;;;;;5021775;28;20053;-77
2023/03/13 04:02:57;;;;;;;8.63;4.70;;;13.20;89.20;;;;;;5019079;28;20037;-79
2023/03/13 04:05:23;;;;;;;10.10;4.63;;;13.20;89.10;;;;;;5020750;28;20488;-76
2023/03/13 04:07:49;;;;;;;7.45;4.28;;;13.20;89.10;;;;;;5018243;28;20041;-78
2023/03/13 04:10:15;;;;;;;9.85;5.00;;;13.20;89.10;;;;;;5019774;28;20044;-78
2023/03/13 04:12:40;;;;;;;11.82;4.80;;;13.20;88.90;;;;;;5009806;28;20592;-83
2023/03/13 04:15:07;;;;;;;10.82;4.80;;;13.20;89.00;;;;;;5018302;28;20064;-78
2023/03/13 04:17:32;;;;;;;9.77;4.55;;;13.20;89.00;;;;;;5014391;28;20065;-74
2023/03/13 04:19:58;;;;;;;13.50;5.40;;;13.20;88.90;;;;;;5005254;28;20371;-78
2023/03/13 04:22:24;;;;;;;13.15;5.18;;;13.20;88.70;;;;;;5021676;28;20041;-78
2023/03/13 04:24:50;;;;;;;9.60;4.47;;;13.20;88.60;;;;;;5019459;28;20021;-79
2023/03/13 04:27:16;;;;;;;9.85;5.03;;;13.20;88.40;;;;;;5023292;28;20041;-80
2023/03/13 04:29:42;;;;;;;12.18;5.20;;;13.30;88.30;;;;;;5023540;28;20055;-76
2023/03/13 04:32:08;;;;;;;10.02;5.22;;;13.20;88.20;;;;;;5003959;28;21120;-79
2023/03/13 04:34:33;;;;;;;11.77;5.18;;;13.30;87.90;;;;;;5026323;28;20036;-80
2023/03/13 04:36:59;;;;;;;11.90;4.78;;;13.30;87.80;;;;;;5015681;28;20033;-76
2023/03/13 04:39:25;;;;;;;11.68;4.63;;;13.30;87.70;;;;;;5004037;28;20040;-82
2023/03/13 04:41:52;;;;;;;12.02;4.60;;;13.20;87.50;;;;;;5021451;28;20045;-75
2023/03/13 04:44:18;;;;;;;13.13;5.55;;;13.30;87.40;;;;;;5019811;28;20029;-77
2023/03/13 04:46:44;;;;;;;13.90;4.75;;;13.30;87.20;;;;;;5022917;28;20063;-82
2023/03/13 04:49:10;;;;;;;13.60;4.82;;;13.30;87.10;;;;;;5024448;28;20101;-76
2023/03/13 04:51:35;;;;;;;11.52;4.63;;;13.30;86.90;;;;;;5021382;28;20484;-81
2023/03/13 04:54:01;;;;;;;14.23;5.32;;;13.30;86.80;;;;;;5024080;28;20064;-79
2023/03/13 04:56:27;;;;;;;17.52;5.00;;;13.30;86.70;;;;;;5021957;28;20636;-78
2023/03/13 04:58:53;;;;;;;13.30;4.72;;;13.20;86.70;;;;;;5001948;28;20140;-80
2023/03/13 05:01:19;;;;;;;10.27;4.45;;;13.30;86.50;;;;;;5022354;28;20065;-80
2023/03/13 05:03:45;;;;;;;13.77;5.38;;;13.20;86.40;;;;;;5014984;28;20120;-78
2023/03/13 05:06:12;;;;;;;15.38;5.20;;;13.30;86.20;;;;;;5023779;28;20117;-76
2023/03/13 05:08:37;;;;;;;13.57;4.53;;;13.30;86.00;;;;;;5021130;28;20021;-76
2023/03/13 05:11:04;;;;;;;13.60;5.18;;;13.30;85.90;;;;;;5015634;28;20038;-81
2023/03/13 05:13:30;;;;;;;15.55;4.93;;;13.30;85.90;;;;;;5024686;28;20139;-78
2023/03/13 05:15:56;;;;;;;13.57;4.28;;;13.40;85.60;;;;;;5005240;28;20697;-77
2023/03/13 05:18:21;;;;;;;14.73;5.00;;;13.40;85.50;;;;;;5022933;28;20017;-84
2023/03/13 05:20:47;;;;;;;16.95;5.15;;;13.30;85.50;;;;;;5024714;28;20390;-78
2023/03/13 05:23:13;;;;;;;13.77;4.45;;;13.30;85.60;;;;;;5007608;28;20106;-76
2023/03/13 05:25:39;;;;;;;11.73;4.30;;;13.30;85.50;;;;;;5021825;28;20453;-79
2023/03/13 05:28:05;;;;;;;11.35;5.00;;;13.40;85.40;;;;;;5024648;28;20021;-80
2023/03/13 05:30:31;;;;;;;15.02;4.90;;;13.30;85.60;;;;;;5020012;28;20034;-77
2023/03/13 05:32:56;;;;;;;10.93;5.05;;;13.30;85.70;;;;;;5028211;28;20100;-82
2023/03/13 05:35:22;;;;;;;11.88;4.32;;;13.30;85.70;;;;;;5016800;28;20047;-79
2023/03/13 05:37:48;;;;;;;15.65;5.57;;;13.30;85.60;;;;;;5023082;28;20466;-79
2023/03/13 05:40:14;;;;;;;10.88;4.40;;;13.30;85.60;;;;;;5008855;28;20870;-76
2023/03/13 05:42:40;;;;;;;14.27;4.63;;;13.30;85.60;;;;;;5019439;28;20547;-79
2023/03/13 05:45:08;;;;;;;13.88;4.72;;;13.30;85.50;;;;;;5030135;28;20020;-80
2023/03/13 05:47:34;;;;;;;12.88;5.10;;;13.30;85.50;;;;;;5026761;28;20033;-78
2023/03/13 05:50:00;;;;;;;13.15;4.57;;;13.30;85.60;;;;;;5027995;28;20018;-76
2023/03/13 05:52:26;;;;;;;14.18;5.40;;;13.30;85.70;;;;;;5029745;28;20067;-81
2023/03/13 05:54:52;;;;;;;13.13;4.78;;;13.30;85.60;;;;;;5030245;28;20052;-76
2023/03/13 05:57:18;;;;;;;18.33;5.32;;;13.30;85.60;;;;;;5026979;28;20060;-79
2023/03/13 05:59:43;;;;;;;13.45;4.35;;;13.30;85.80;;;;;;5015411;28;20074;-79
2023/03/13 06:02:09;;;;;;;12.50;4.72;;;13.30;85.80;;;;;;5024082;28;20125;-76
2023/03/13 06:04:35;;;;;;;16.83;4.97;;;13.30;85.60;;;;;;5005730;28;20025;-81
2023/03/13 06:07:01;;;;;;;13.63;4.40;;;13.30;85.50;;;;;;5009426;28;20556;-76
2023/03/13 06:09:27;;;;;;;16.75;4.90;;;13.40;85.30;;;;;;5021250;28;20557;-75
2023/03/13 06:11:53;;;;;;;15.13;5.30;;;13.30;85.70;;;;;;5024092;28;20037;-78
2023/03/13 06:14:19;;;;;;;12.57;4.80;;;13.30;86.00;;;;;;5022627;28;20032;-78
2023/03/13 06:16:44;;;;;;;16.60;5.80;;;13.30;86.80;;;;;;5021364;28;20210;-83
2023/03/13 06:19:10;;;;;;;12.95;5.40;;;13.20;87.10;;;;;;5028276;28;20101;-82
2023/03/13 06:21:36;;;;;;;12.63;5.50;;;13.10;87.30;;;;;;5018716;28;20061;-76
2023/03/13 06:24:02;;;;;;;14.68;5.40;;;13.10;87.40;;;;;;5023506;28;20089;-80
2023/03/13 06:26:28;;;;;;;12.98;5.05;;;13.10;87.20;;;;;;5020037;28;20037;-82
2023/03/13 06:28:54;;;;;;;16.13;5.10;;;13.10;87.10;;;;;;5016962;28;20037;-77
2023/03/13 06:31:19;;;;;;;16.00;5.43;;;13.10;87.00;;;;;;5020375;28;20064;-77
2023/03/13 06:33:45;;;;;;;11.57;5.25;;;13.10;86.80;;;;;;4999080;28;20029;-78
2023/03/13 06:36:11;;;;;;;14.98;5.45;;;13.10;86.60;;;;;;5019421;28;20037;-80
2023/03/13 06:38:37;;;;;;;14.02;5.32;;;13.20;86.30;;;;;;5020324;28;20017;-79
2023/03/13 06:41:03;;;;;;;12.95;4.47;;;13.20;85.90;;;;;;5000871;28;20041;-77
2023/03/13 06:43:29;;;;;;;14.60;4.70;;;13.20;85.70;;;;;;5019823;28;20030;-82
2023/03/13 06:45:55;;;;;;;12.55;4.78;;;13.20;85.60;;;;;;5020751;28;20046;-78
2023/03/13 06:48:22;;;;;;;9.90;4.22;;;13.20;85.40;;;;;;5004078;28;20056;-81
2023/03/13 06:50:48;;;;;;;14.80;5.10;;;13.30;85.40;;;;;;5001123;28;20025;-86
2023/03/13 06:53:23;;;;;;;14.63;5.10;;;13.30;85.20;;;;;;5016903;28;20022;-73
2023/03/13 06:55:48;;;;;;;16.20;5.68;;;13.30;85.40;;;;;;5022090;28;20028;-78
2023/03/13 06:58:16;;;;;;;13.15;5.03;;;13.30;85.50;;;;;;5006416;28;20028;-78
2023/03/13 07:00:43;;;;;;;12.90;5.07;;;13.30;85.60;;;;;;5018397;28;20706;-79
2023/03/13 07:03:13;;;;;;;13.95;4.88;;;13.30;85.60;;;;;;5021033;28;20022;-81
2023/03/13 07:05:39;;;;;;;11.93;4.68;;;13.40;85.70;;;;;;5013029;28;20161;-83
2023/03/13 07:08:04;;;;;;;13.70;4.95;;;13.40;85.60;;;;;;5020180;28;20029;-76
2023/03/13 07:10:30;;;;;;;11.98;4.10;;;13.40;85.60;;;;;;5012428;28;20035;-76
2023/03/13 07:12:56;;;;;;;11.73;4.00;;;13.50;85.90;;;;;;5015277;28;20449;-77
2023/03/13 07:15:22;;;;;;;13.88;4.30;;;13.40;86.00;;;;;;5016890;28;20029;-76
2023/03/13 07:17:48;;;;;;;10.77;3.65;;;13.50;85.80;;;;;;5020118;28;20753;-82
2023/03/13 07:20:13;;;;;;;16.85;3.97;;;13.60;85.70;;;;;;5026165;28;20021;-81
2023/03/13 07:22:39;;;;;;;9.77;3.10;;;13.60;85.70;;;;;;5003883;28;20179;-85
2023/03/13 07:25:05;;;;;;;7.50;3.55;;;13.60;85.30;;;;;;5004657;28;20552;-82
2023/03/13 07:27:31;;;;;;;8.32;3.10;;;13.70;84.40;;;;;;5020265;28;20022;-80
2023/03/13 07:29:57;;;;;;;9.70;3.10;;;13.80;84.00;;;;;;5023617;28;20057;-80
2023/03/13 07:32:23;;;;;;;8.02;2.83;;;13.90;83.60;;;;;;5022710;28;20461;-79
2023/03/13 07:34:48;;;;;;;8.85;3.03;;;14.00;83.60;;;;;;5017799;28;20033;-80
2023/03/13 07:37:15;;;;;;;7.15;3.40;;;14.10;83.40;;;;;;5022213;28;20048;-84
2023/03/13 07:39:42;;;;;;;9.25;3.30;;;14.10;83.20;;;;;;5023499;28;20389;-81
2023/03/13 07:42:10;;;;;;;9.43;2.92;;;14.10;83.00;;;;;;5009364;28;20037;-75
2023/03/13 07:44:36;;;;;;;9.15;3.42;;;14.10;82.80;;;;;;5022741;28;20037;-78
2023/03/13 07:47:02;;;;;;;8.82;2.75;;;14.20;82.50;;;;;;5017441;28;20071;-79
2023/03/13 07:49:28;;;;;;;7.20;2.47;;;14.30;82.30;;;;;;5020079;28;20370;-74
2023/03/13 07:51:54;;;;;;;10.57;3.17;;;14.30;82.10;;;;;;5027224;28;20063;-77
2023/03/13 07:54:19;;;;;;;13.10;3.15;;;14.40;82.30;;;;;;5032348;28;20013;-75
2023/03/13 07:56:45;;;;;;;8.20;3.03;;;14.40;82.50;;;;;;5020110;28;20087;-76
2023/03/13 07:59:11;;;;;;;8.40;2.80;;;14.50;82.60;;;;;;5029051;28;20067;-77
2023/03/13 08:01:37;;;;;;;8.40;3.00;;;14.60;82.40;;;;;;5032632;28;20076;-74
2023/03/13 08:04:04;;;;;;;9.13;3.00;;;14.50;82.60;;;;;;5028375;28;20036;-77
2023/03/13 08:06:31;;;;;;;8.98;3.63;;;14.60;82.80;;;;;;5022332;28;20478;-76
2023/03/13 08:08:58;;;;;;;10.75;3.60;;;14.60;82.90;;;;;;5030995;28;20028;-74
2023/03/13 08:11:26;;;;;;;13.52;3.88;;;14.60;82.80;;;;;;5036489;28;20082;-83
2023/03/13 08:13:56;;;;;;;9.07;3.47;;;14.60;82.50;;;;;;5026225;28;20037;-74
2023/03/13 08:16:22;;;;;;;10.00;4.18;;;14.60;82.30;;;;;;5029639;28;20094;-75
2023/03/13 08:18:52;;;;;;;11.25;4.25;;;14.70;82.30;;;;;;5035659;28;20078;-79
2023/03/13 08:21:23;;;;;;;9.65;4.00;;;14.60;82.60;;;;;;5027718;28;20041;-76
2023/03/13 08:23:53;;;;;;;9.23;3.45;;;14.80;82.20;;;;;;5027841;28;20025;-75
2023/03/13 08:26:20;;;;;;;11.55;4.70;;;14.80;82.20;;;;;;5034839;28;20150;-75
2023/03/13 08:28:50;;;;;;;11.95;4.13;;;14.80;82.50;;;;;;5038230;28;20037;-82
2023/03/13 08:31:28;;;;;;;10.77;3.80;;;15.00;82.20;;;;;;5022554;28;20041;-81
2023/03/13 08:33:53;;;;;;;12.60;3.88;;;15.00;81.80;;;;;;5027021;28;20030;-76
2023/03/13 08:36:22;;;;;;;9.30;3.63;;;15.10;81.80;;;;;;5029408;28;20034;-75
2023/03/13 08:38:48;;;;;;;9.48;4.07;;;15.10;81.70;;;;;;5023164;28;20124;-82
2023/03/13 08:41:17;;;;;;;14.25;3.55;;;15.00;81.60;;;;;;5036820;28;20087;-76
2023/03/13 08:43:43;;;;;;;11.13;3.60;;;15.00;81.80;;;;;;5031862;28;20732;-74
2023/03/13 08:46:08;;;;;;;8.60;3.78;;;15.00;82.00;;;;;;5030679;28;20044;-78
2023/03/13 08:48:34;;;;;;;13.75;3.95;;;15.10;82.00;;;;;;5028436;28;20033;-76
2023/03/13 08:51:01;;;;;;;10.85;4.00;;;15.00;82.00;;;;;;5026665;28;20753;-76
2023/03/13 08:53:27;;;;;;;11.05;5.20;;;15.00;82.20;;;;;;5030349;28;20017;-79
2023/03/13 08:55:53;;;;;;;11.18;4.13;;;15.10;82.00;;;;;;5031929;28;20124;-75
2023/03/13 08:58:19;;;;;;;10.98;4.22;;;15.10;81.90;;;;;;5026617;28;20029;-77
2023/03/13 09:00:45;;;;;;;10.02;3.75;;;15.20;81.70;;;;;;5020089;28;20038;-77
2023/03/13 09:03:10;;;;;;;13.60;4.63;;;15.20;81.70;;;;;;5024097;28;20026;-76
2023/03/13 09:05:39;;;;;;;12.63;4.85;;;15.20;81.70;;;;;;5020546;28;20466;-81
2023/03/13 09:08:05;;;;;;;9.00;3.50;;;15.20;81.70;;;;;;5017989;28;20020;-77
2023/03/13 09:10:34;;;;;;;9.88;3.47;;;15.10;81.50;;;;;;5015828;28;20909;-75
2023/03/13 09:13:01;;;;;;;7.68;3.30;;;15.30;81.40;;;;;;5022105;28;20148;-78
2023/03/13 09:15:27;;;;;;;9.23;3.50;;;15.40;80.80;;;;;;5022546;28;20021;-75
2023/03/13 09:17:53;;;;;;;6.65;2.92;;;15.50;80.50;;;;;;5036114;28;20025;-78
2023/03/13 09:20:19;;;;;;;7.28;3.10;;;15.60;79.90;;;;;;5036470;28;20032;-77
2023/03/13 09:22:45;;;;;;;7.22;3.42;;;15.70;79.50;;;;;;5032296;28;20243;-75
2023/03/13 09:25:12;;;;;;;8.25;3.22;;;15.80;78.90;;;;;;5007422;28;20021;-75
2023/03/13 09:27:38;;;;;;;7.22;3.08;;;15.80;78.10;;;;;;5022677;28;20033;-77
2023/03/13 09:30:05;;;;;;;8.43;2.90;;;15.90;78.40;;;;;;5015828;28;20025;-72
2023/03/13 09:32:31;;;;;;;7.05;2.55;;;16.00;77.80;;;;;;5021358;28;20045;-74
2023/03/13 09:34:58;;;;;;;7.82;2.85;;;16.10;76.60;;;;;;5024535;28;20028;-74
2023/03/13 09:37:24;;;;;;;7.10;3.08;;;16.00;76.20;;;;;;5018834;28;20052;-75
2023/03/13 09:39:50;;;;;;;7.88;2.58;;;16.20;76.30;;;;;;5024061;28;20034;-78
2023/03/13 09:42:36;;;;;;;6.50;2.63;;;16.20;75.90;;;;;;5018499;28;20034;-75
2023/03/13 09:45:07;;;;;;;6.35;2.55;;;16.20;75.50;;;;;;5025443;28;20044;-82
2023/03/13 09:47:56;;;;;;;5.40;2.67;;;16.10;76.20;;;;;;5022670;28;20497;-79
2023/03/13 09:50:30;;;;;;;6.80;2.33;;;15.90;76.20;;;;;;5006067;28;20093;-79
2023/03/13 09:53:23;;;;;;;6.40;2.65;;;15.70;76.40;;;;;;5000618;28;20173;-79
2023/03/13 09:55:51;;;;;;;5.32;2.15;;;15.80;76.30;;;;;;5016223;28;20816;-75
2023/03/13 09:58:19;;;;;;;7.85;2.38;;;16.10;75.20;;;;;;5025119;28;20036;-76
2023/03/13 10:00:53;;;;;;;9.07;2.20;;;16.20;74.60;;;;;;5028737;28;20531;-75
2023/03/13 10:03:41;;;;;;;8.10;2.83;;;16.30;74.10;;;;;;5025700;28;20048;-75
2023/03/13 10:06:20;;;;;;;9.88;2.25;;;16.40;72.30;;;;;;5017066;28;20554;-80
2023/03/13 10:08:46;;;;;;;3.53;1.48;;;16.50;69.70;;;;;;5027880;28;20029;-78
2023/03/13 10:11:40;;;;;;;4.70;1.60;;;16.60;68.80;;;;;;5026089;28;20060;-75
2023/03/13 10:14:19;;;;;;;7.32;1.98;;;16.70;68.50;;;;;;5024338;28;20023;-78
2023/03/13 10:17:06;;;;;;;7.90;1.95;;;16.70;67.00;;;;;;5006523;28;20072;-75
2023/03/13 10:19:36;;;;;;;8.48;2.30;;;16.90;65.60;;;;;;5018616;28;20599;-76
2023/03/13 10:22:10;;;;;;;8.65;2.08;;;16.80;65.10;;;;;;5010942;28;20038;-76
2023/03/13 10:24:45;;;;;;;8.32;1.73;;;17.00;64.00;;;;;;5010119;28;20033;-76
2023/03/13 10:27:12;;;;;;;6.10;2.50;;;17.10;63.60;;;;;;5015461;28;20095;-76
2023/03/13 10:29:38;;;;;;;9.35;2.10;;;17.00;64.10;;;;;;5029538;28;20149;-75
2023/03/13 10:32:06;;;;;;;9.63;2.35;;;17.00;65.30;;;;;;5023184;28;20041;-76
2023/03/13 10:35:01;;;;;;;5.57;1.80;;;16.90;65.00;;;;;;5011975;28;20433;-77
2023/03/13 10:37:41;;;;;;;7.57;2.00;;;16.90;64.00;;;;;;5021117;28;20053;-78
2023/03/13 10:40:21;;;;;;;8.07;2.40;;;17.00;65.00;;;;;;5020627;28;20041;-79
2023/03/13 10:42:47;;;;;;;7.40;2.25;;;17.30;64.40;;;;;;4993813;28;20755;-74
2023/03/13 10:45:17;;;;;;;9.60;2.28;;;17.80;64.40;;;;;;5024112;28;20048;-74
2023/03/13 10:47:42;;;;;;;7.43;1.80;;;18.10;63.60;;;;;;5021346;28;20491;-77
2023/03/13 10:50:19;;;;;;;6.90;2.20;;;18.00;62.10;;;;;;5008020;28;20121;-75
2023/03/13 10:52:47;;;;;;;7.10;1.80;;;18.00;64.10;;;;;;5028218;28;20481;-74
2023/03/13 10:55:17;;;;;;;6.18;1.85;;;17.80;62.60;;;;;;5003047;28;20413;-78
2023/03/13 10:58:01;;;;;;;8.40;1.85;;;17.60;64.20;;;;;;5027627;28;20099;-77
2023/03/13 11:00:34;;;;;;;6.10;1.80;;;17.40;63.00;;;;;;5011575;28;20485;-75
2023/03/13 11:03:07;;;;;;;6.65;1.83;;;17.30;63.70;;;;;;5019458;28;20544;-74
2023/03/13 11:05:38;;;;;;;6.60;1.70;;;17.40;63.50;;;;;;5028724;28;20101;-78
2023/03/13 11:08:34;;;;;;;7.15;2.10;;;17.40;63.60;;;;;;5022526;28;20037;-74
2023/03/13 11:11:03;;;;;;;6.70;1.85;;;17.50;63.10;;;;;;5015994;28;20060;-74
2023/03/13 11:13:41;;;;;;;8.70;1.98;;;17.90;61.70;;;;;;5020833;28;20041;-78
2023/03/13 11:16:22;;;;;;;8.05;1.90;;;18.10;60.00;;;;;;5019332;28;20079;-78
2023/03/13 11:19:13;;;;;;;7.88;2.13;;;18.40;59.10;;;;;;5024292;28;20035;-75
2023/03/13 11:21:38;;;;;;;9.40;2.30;;;18.60;58.60;;;;;;5018296;28;20059;-78
2023/03/13 11:24:17;;;;;;;8.48;2.30;;;18.60;56.40;;;;;;5021511;28;20033;-75
2023/03/13 11:27:14;;;;;;;11.23;2.63;;;18.60;56.40;;;;;;5018556;28;20041;-72
2023/03/13 11:29:59;;;;;;;7.85;2.50;;;18.60;55.60;;;;;;4995065;28;20033;-75
2023/03/13 11:32:51;;;;;;;7.32;2.65;;;18.60;56.20;;;;;;5009643;28;20042;-78
2023/03/13 11:35:34;;;;;;;9.95;2.55;;;18.30;56.80;;;;;;5009400;28;20136;-77
2023/03/13 11:38:12;;;;;;;9.88;2.95;;;18.00;56.60;;;;;;5011684;28;20057;-74
2023/03/13 11:40:54;;;;;;;8.40;2.47;;;17.80;56.90;;;;;;5009470;28;20025;-78
2023/03/13 11:44:00;;;;;;;14.10;2.97;;;17.50;58.00;;;;;;5008983;28;20021;-75
2023/03/13 11:46:28;;;;;;;13.38;3.20;;;17.40;59.10;;;;;;4982333;28;20068;-75
2023/03/13 11:49:13;;;;;;;10.85;2.90;;;17.30;59.70;;;;;;4990390;28;20029;-76
2023/03/13 11:51:51;;;;;;;9.93;2.97;;;17.30;59.70;;;;;;5009339;28;20381;-79
2023/03/13 11:54:57;;;;;;;13.68;3.15;;;17.20;60.00;;;;;;5010693;28;20048;-75
2023/03/13 11:57:37;;;;;;;13.05;3.38;;;17.40;60.00;;;;;;4951869;28;20970;-73
2023/03/13 12:00:16;;;;;;;9.25;2.55;;;17.60;60.40;;;;;;5016430;28;20032;-78
2023/03/13 12:03:11;;;;;;;11.15;2.90;;;17.90;58.80;;;;;;4991477;28;20326;-74
2023/03/13 12:05:50;;;;;;;11.80;2.95;;;17.90;59.00;;;;;;4993278;28;20620;-73
2023/03/13 12:08:22;;;;;;;16.17;3.35;;;17.70;59.40;;;;;;5007014;28;21405;-75
2023/03/13 12:11:10;;;;;;;12.40;3.53;;;17.70;59.30;;;;;;5007166;28;20030;-80
2023/03/13 12:13:40;;;;;;;11.75;3.13;;;17.90;59.50;;;;;;5010267;28;20033;-76
2023/03/13 12:16:13;;;;;;;12.98;3.45;;;18.50;58.90;;;;;;5006016;28;20500;-81
2023/03/13 12:18:41;;;;;;;15.00;2.85;;;18.60;57.80;;;;;;5010658;28;20025;-76
2023/03/13 12:21:15;;;;;;;11.60;2.85;;;18.30;58.20;;;;;;5010129;28;20183;-76
2023/03/13 12:23:45;;;;;;;;;;;17.80;57.60;;;;;;5011158;28;20351;-79
2023/03/13 12:26:22;;;;;;;11.98;3.13;;;17.90;57.40;;;;;;5008943;28;19920;-75
2023/03/13 12:29:11;;;;;;;14.93;3.13;;;17.80;58.00;;;;;;5006388;28;20029;-75
2023/03/13 12:32:18;;;;;;;13.35;3.17;;;18.00;58.90;;;;;;5008152;28;20545;-75
2023/03/13 12:35:11;;;;;;;14.10;3.25;;;18.10;58.50;;;;;;4984161;28;20074;-76
2023/03/13 12:37:46;;;;;;;13.70;3.00;;;18.10;57.10;;;;;;5013229;28;20133;-77
2023/03/13 12:40:53;;;;;;;13.30;3.08;;;18.30;56.70;;;;;;5017091;28;20081;-76
2023/03/13 12:43:23;;;;;;;14.43;3.60;;;18.30;56.70;;;;;;5020167;28;20544;-76
2023/03/13 12:45:58;;;;;;;15.40;4.00;;;18.10;58.00;;;;;;5021204;28;20057;-76
2023/03/13 12:48:42;;;;;;;;;;;18.10;57.60;;;;;;5018204;28;20052;-77
2023/03/13 12:51:43;;;;;;;14.27;3.60;;;18.10;57.30;;;;;;5020015;28;20460;-80
2023/03/13 12:54:17;;;;;;;15.15;4.10;;;18.40;58.10;;;;;;5016972;28;20246;-75